createdAt,value
2018-01-12T00:02:18.455Z,7.07
2018-01-12T00:04:44.362Z,6.13
2018-01-12T00:07:10.273Z,6.27
2018-01-12T00:09:36.938Z,6.87
2018-01-12T00:12:02.867Z,5.87
2018-01-12T00:14:28.810Z,6.07
2018-01-12T00:16:54.730Z,5.87
2018-01-12T00:19:20.641Z,6.47
2018-01-12T00:21:47.293Z,6.37
2018-01-12T00:24:13.217Z,5.80
2018-01-12T00:26:39.140Z,5.57
2018-01-12T00:29:05.057Z,5.63
2018-01-12T00:31:30.990Z,6.50
2018-01-12T00:33:56.933Z,5.23
2018-01-12T00:36:22.854Z,5.30
2018-01-12T00:38:48.798Z,5.93
2018-01-12T00:41:14.725Z,5.37
2018-01-12T00:43:40.666Z,5.43
2018-01-12T00:46:06.593Z,6.43
2018-01-12T00:48:32.546Z,6.43
2018-01-12T00:50:58.501Z,5.50
2018-01-12T00:53:24.434Z,6.23
2018-01-12T00:55:50.354Z,6.27
2018-01-12T00:58:16.303Z,5.63
2018-01-12T01:00:42.227Z,6.37
2018-01-12T01:03:08.149Z,4.67
2018-01-12T01:05:34.117Z,6.00
2018-01-12T01:08:00.805Z,4.73
2018-01-12T01:10:26.725Z,5.77
2018-01-12T01:12:52.650Z,5.53
2018-01-12T01:15:19.310Z,5.77
2018-01-12T01:17:45.238Z,5.67
2018-01-12T01:20:11.153Z,5.33
2018-01-12T01:22:37.828Z,5.90
2018-01-12T01:25:03.749Z,5.47
2018-01-12T01:27:30.417Z,6.20
2018-01-12T01:29:56.348Z,6.20
2018-01-12T01:32:22.278Z,5.83
2018-01-12T01:34:48.203Z,6.17
2018-01-12T01:37:14.856Z,5.50
2018-01-12T01:39:41.513Z,5.43
2018-01-12T01:42:07.421Z,5.27
2018-01-12T01:44:34.082Z,5.67
2018-01-12T01:47:00.750Z,5.83
2018-01-12T01:49:27.443Z,5.87
2018-01-12T01:51:53.371Z,5.40
2018-01-12T01:54:19.297Z,5.97
2018-01-12T01:56:45.217Z,6.00
2018-01-12T01:59:11.159Z,7.00
2018-01-12T02:01:37.077Z,5.87
2018-01-12T02:04:03.030Z,6.30
2018-01-12T02:06:28.950Z,6.00
2018-01-12T02:08:54.873Z,6.07
2018-01-12T02:11:21.534Z,6.33
2018-01-12T02:13:47.466Z,6.57
2018-01-12T02:16:13.396Z,5.73
2018-01-12T02:18:39.310Z,4.97
2018-01-12T02:21:05.961Z,5.27
2018-01-12T02:23:32.625Z,5.37
2018-01-12T02:25:59.296Z,5.37
2018-01-12T02:28:25.214Z,5.97
2018-01-12T02:30:51.128Z,6.00
2018-01-12T02:33:17.791Z,5.47
2018-01-12T02:35:44.448Z,5.43
2018-01-12T02:38:11.101Z,5.20
2018-01-12T02:40:37.013Z,5.33
2018-01-12T02:43:03.690Z,6.37
2018-01-12T02:45:29.622Z,5.47
2018-01-12T02:47:55.534Z,5.10
2018-01-12T02:50:22.197Z,5.10
2018-01-12T02:52:48.876Z,6.00
2018-01-12T02:55:14.793Z,5.87
2018-01-12T02:57:40.699Z,6.03
2018-01-12T03:00:06.619Z,6.70
2018-01-12T03:02:32.543Z,7.73
2018-01-12T03:04:58.503Z,8.07
2018-01-12T03:07:24.409Z,8.60
2018-01-12T03:09:50.347Z,10.00
2018-01-12T03:12:16.268Z,9.63
2018-01-12T03:14:42.193Z,8.97
2018-01-12T03:17:08.113Z,9.83
2018-01-12T03:19:34.045Z,10.17
2018-01-12T03:21:59.988Z,10.37
2018-01-12T03:24:25.920Z,10.90
2018-01-12T03:26:51.838Z,10.40
2018-01-12T03:29:17.748Z,10.40
2018-01-12T03:31:44.406Z,11.30
2018-01-12T03:34:11.064Z,11.63
2018-01-12T03:36:37.753Z,11.57
2018-01-12T03:39:03.692Z,10.80
2018-01-12T03:41:29.619Z,9.50
2018-01-12T03:43:55.533Z,8.80
2018-01-12T03:46:21.445Z,8.40
2018-01-12T03:48:48.109Z,8.83
2018-01-12T03:51:14.756Z,10.53
2018-01-12T03:53:41.421Z,11.37
2018-01-12T03:56:07.337Z,12.00
2018-01-12T03:58:34.012Z,10.73
2018-01-12T04:00:59.920Z,11.30
2018-01-12T04:03:26.606Z,13.00
2018-01-12T04:05:52.520Z,10.10
2018-01-12T04:08:18.445Z,11.80
2018-01-12T04:10:45.098Z,10.77
2018-01-12T04:13:11.750Z,10.57
2018-01-12T04:15:37.677Z,11.70
2018-01-12T04:18:04.329Z,9.77
2018-01-12T04:20:31.012Z,10.23
2018-01-12T04:22:56.941Z,11.43
2018-01-12T04:25:22.865Z,12.03
2018-01-12T04:27:49.224Z,12.07
2018-01-12T04:30:15.141Z,11.33
2018-01-12T04:32:41.049Z,11.33
2018-01-12T04:35:07.707Z,10.93
2018-01-12T04:37:34.382Z,11.23
2018-01-12T04:40:00.352Z,11.60
2018-01-12T04:42:26.314Z,12.17
2018-01-12T04:44:52.232Z,11.07
2018-01-12T04:47:18.145Z,12.43
2018-01-12T04:49:44.073Z,10.93
2018-01-12T04:52:09.976Z,12.70
2018-01-12T04:54:35.903Z,11.63
2018-01-12T04:57:02.570Z,13.73
2018-01-12T04:59:28.538Z,11.00
2018-01-12T05:01:54.445Z,11.40
2018-01-12T05:04:20.368Z,12.07
2018-01-12T05:06:46.298Z,11.90
2018-01-12T05:09:12.215Z,11.50
2018-01-12T05:11:38.883Z,11.57
2018-01-12T05:14:05.597Z,12.37
2018-01-12T05:16:31.542Z,12.93
2018-01-12T05:18:57.486Z,12.07
2018-01-12T05:21:24.151Z,12.27
2018-01-12T05:23:50.809Z,12.53
2018-01-12T05:26:16.722Z,12.50
2018-01-12T05:28:43.380Z,11.27
2018-01-12T05:31:10.021Z,11.97
2018-01-12T05:33:36.701Z,13.40
2018-01-12T05:36:02.620Z,12.83
2018-01-12T05:38:29.312Z,15.27
2018-01-12T05:40:55.242Z,11.10
2018-01-12T05:43:21.149Z,10.63
2018-01-12T05:45:47.066Z,10.23
2018-01-12T05:48:13.717Z,12.27
2018-01-12T05:50:40.372Z,11.17
2018-01-12T05:53:07.016Z,10.43
2018-01-12T05:55:33.718Z,9.10
2018-01-12T05:57:59.651Z,10.20
2018-01-12T06:00:25.572Z,9.77
2018-01-12T06:03:03.873Z,9.77
2018-01-12T06:05:42.916Z,9.27
2018-01-12T06:08:16.418Z,10.53
2018-01-12T06:10:43.073Z,9.30
2018-01-12T06:13:09.722Z,10.93
2018-01-12T06:15:36.393Z,10.17
2018-01-12T06:18:02.321Z,10.87
2018-01-12T06:20:29.040Z,11.63
2018-01-12T06:22:54.949Z,11.07
2018-01-12T06:25:20.870Z,10.53
2018-01-12T06:27:46.791Z,11.30
2018-01-12T06:30:12.716Z,10.93
2018-01-12T06:32:38.629Z,12.10
2018-01-12T06:35:05.289Z,12.83
2018-01-12T06:37:31.966Z,11.13
2018-01-12T06:39:57.888Z,11.80
2018-01-12T06:42:23.793Z,13.50
2018-01-12T06:44:50.457Z,12.20
2018-01-12T06:47:17.108Z,10.60
2018-01-12T06:49:43.781Z,11.53
2018-01-12T06:52:09.690Z,11.80
2018-01-12T06:54:36.346Z,11.60
2018-01-12T06:57:03.007Z,11.03
2018-01-12T06:59:28.948Z,10.90
2018-01-12T07:01:54.861Z,11.07
2018-01-12T07:04:21.523Z,10.57
2018-01-12T07:06:47.436Z,10.80
2018-01-12T07:09:14.113Z,11.17
2018-01-12T07:11:40.038Z,10.40
2018-01-12T07:14:06.718Z,9.17
2018-01-12T07:16:32.664Z,10.03
2018-01-12T07:18:58.624Z,10.10
2018-01-12T07:21:36.968Z,9.73
2018-01-12T07:24:03.629Z,10.07
2018-01-12T07:26:30.312Z,11.27
2018-01-12T07:28:56.249Z,9.17
2018-01-12T07:31:22.172Z,11.03
2018-01-12T07:33:48.085Z,9.83
2018-01-12T07:36:14.753Z,12.50
2018-01-12T07:38:40.670Z,10.40
2018-01-12T07:41:07.336Z,10.83
2018-01-12T07:43:33.989Z,12.13
2018-01-12T07:45:59.930Z,12.20
2018-01-12T07:48:25.844Z,11.80
2018-01-12T07:50:52.508Z,11.53
2018-01-12T07:53:20.428Z,12.30
2018-01-12T07:55:46.340Z,13.60
2018-01-12T07:58:12.257Z,12.07
2018-01-12T08:00:44.260Z,11.13
2018-01-12T08:03:10.173Z,10.80
2018-01-12T08:05:36.097Z,10.70
2018-01-12T08:08:02.021Z,11.20
2018-01-12T08:10:28.796Z,10.90
2018-01-12T08:12:54.767Z,11.33
2018-01-12T08:15:20.685Z,12.17
2018-01-12T08:17:46.595Z,12.63
2018-01-12T08:20:12.508Z,10.93
2018-01-12T08:22:39.161Z,11.13
2018-01-12T08:25:05.851Z,12.77
2018-01-12T08:27:31.781Z,12.23
2018-01-12T08:29:57.712Z,11.50
2018-01-12T08:32:23.612Z,11.97
2018-01-12T08:34:50.300Z,10.87
2018-01-12T08:37:16.204Z,11.33
2018-01-12T08:39:42.868Z,10.83
2018-01-12T08:42:08.777Z,11.70
2018-01-12T08:44:35.433Z,12.43
2018-01-12T08:47:02.170Z,11.97
2018-01-12T08:49:28.101Z,11.53
2018-01-12T08:51:54.017Z,12.43
2018-01-12T08:54:19.933Z,11.53
2018-01-12T08:56:45.853Z,12.00
2018-01-12T08:59:11.764Z,11.77
2018-01-12T09:01:38.428Z,11.43
2018-01-12T09:04:04.365Z,11.77
2018-01-12T09:06:30.302Z,10.67
2018-01-12T09:08:56.260Z,11.20
2018-01-12T09:11:22.173Z,11.57
2018-01-12T09:13:55.225Z,11.17
2018-01-12T09:16:26.998Z,11.33
2018-01-12T09:19:05.633Z,12.30
2018-01-12T09:21:35.553Z,13.00
2018-01-12T09:24:01.472Z,12.10
2018-01-12T09:26:27.427Z,12.20
2018-01-12T09:28:54.820Z,12.13
2018-01-12T09:31:27.301Z,12.97
2018-01-12T09:33:53.993Z,13.50
2018-01-12T09:36:19.921Z,13.53
2018-01-12T09:38:51.710Z,13.23
2018-01-12T09:41:17.619Z,11.80
2018-01-12T09:43:43.528Z,13.20
2018-01-12T09:46:10.194Z,13.57
2018-01-12T09:48:36.104Z,12.93
2018-01-12T09:51:02.039Z,11.57
2018-01-12T09:53:28.737Z,12.13
2018-01-12T09:55:54.652Z,12.17
2018-01-12T09:58:20.626Z,12.07
2018-01-12T10:00:59.449Z,13.27
2018-01-12T10:03:25.371Z,11.63
2018-01-12T10:05:51.297Z,11.80
2018-01-12T10:08:23.324Z,11.40
2018-01-12T10:10:49.241Z,12.90
2018-01-12T10:13:15.159Z,12.87
2018-01-12T10:15:41.068Z,13.53
2018-01-12T10:18:11.868Z,12.50
2018-01-12T10:20:37.808Z,13.03
2018-01-12T10:23:05.240Z,11.70
2018-01-12T10:25:31.182Z,12.37
2018-01-12T10:27:57.188Z,12.17
2018-01-12T10:33:16.902Z,12.70
2018-01-12T10:35:52.877Z,12.90
2018-01-12T10:38:19.540Z,12.63
2018-01-12T10:40:52.653Z,13.07
2018-01-12T10:43:18.581Z,12.47
2018-01-12T10:45:52.741Z,13.60
2018-01-12T10:48:27.886Z,13.60
2018-01-12T10:50:56.697Z,14.10
2018-01-12T10:53:22.636Z,14.07
2018-01-12T10:55:48.552Z,13.67
2018-01-12T10:58:14.498Z,15.10
2018-01-12T11:00:40.414Z,15.03
2018-01-12T11:03:06.336Z,14.87
2018-01-12T11:05:32.289Z,15.53
2018-01-12T11:07:58.249Z,14.50
2018-01-12T11:10:24.168Z,15.37
2018-01-12T11:12:50.088Z,15.60
2018-01-12T11:15:16.016Z,15.80
2018-01-12T11:17:41.936Z,16.10
2018-01-12T11:20:07.864Z,15.27
2018-01-12T11:22:33.800Z,16.80
2018-01-12T11:24:59.753Z,14.57
2018-01-12T11:27:25.715Z,15.63
2018-01-12T11:29:51.644Z,14.43
2018-01-12T11:32:17.562Z,15.27
2018-01-12T11:34:43.468Z,14.20
2018-01-12T11:37:09.396Z,13.97
2018-01-12T11:39:36.065Z,13.37
2018-01-12T11:42:02.029Z,15.83
2018-01-12T11:44:27.990Z,13.83
2018-01-12T11:46:53.926Z,12.87
2018-01-12T11:49:19.840Z,14.47
2018-01-12T11:51:45.793Z,13.80
2018-01-12T11:54:11.711Z,13.90
2018-01-12T11:56:37.651Z,13.10
2018-01-12T11:59:03.617Z,13.50
2018-01-12T12:01:30.432Z,16.20
2018-01-12T12:03:56.391Z,14.30
2018-01-12T12:06:22.310Z,14.33
2018-01-12T12:08:48.236Z,13.80
2018-01-12T12:11:14.156Z,13.97
2018-01-12T12:13:40.076Z,14.97
2018-01-12T12:16:06.090Z,15.20
2018-01-12T12:18:31.996Z,14.83
2018-01-12T12:20:57.988Z,14.03
2018-01-12T12:23:23.905Z,13.97
2018-01-12T12:25:49.811Z,13.13
2018-01-12T12:28:16.476Z,14.33
2018-01-12T12:30:43.168Z,14.73
2018-01-12T12:33:09.106Z,13.90
2018-01-12T12:35:35.112Z,12.43
2018-01-12T12:38:01.068Z,14.97
2018-01-12T12:40:27.017Z,13.60
2018-01-12T12:42:52.945Z,13.60
2018-01-12T12:45:18.852Z,13.13
2018-01-12T12:47:44.827Z,13.97
2018-01-12T12:50:10.739Z,13.47
2018-01-12T12:52:36.673Z,13.27
2018-01-12T12:55:02.613Z,13.00
2018-01-12T12:57:28.601Z,12.40
2018-01-12T12:59:55.255Z,13.50
2018-01-12T13:02:21.165Z,13.90
2018-01-12T13:04:47.076Z,14.60
2018-01-12T13:07:12.990Z,14.13
2018-01-12T13:09:38.896Z,15.03
2018-01-12T13:12:04.897Z,13.50
2018-01-12T13:14:30.857Z,13.40
2018-01-12T13:16:56.850Z,14.67
2018-01-12T13:19:22.787Z,13.90
2018-01-12T13:21:48.729Z,13.77
2018-01-12T13:24:14.649Z,15.53
2018-01-12T13:26:40.603Z,14.03
2018-01-12T13:29:06.492Z,14.27
2018-01-12T13:31:32.420Z,12.67
2018-01-12T13:33:58.365Z,13.43
2018-01-12T13:36:24.292Z,12.23
2018-01-12T13:38:50.208Z,12.30
2018-01-12T13:41:16.140Z,12.63
2018-01-12T13:43:42.808Z,11.77
2018-01-12T13:46:08.729Z,13.80
2018-01-12T13:48:34.705Z,13.57
2018-01-12T13:51:00.661Z,13.57
2018-01-12T13:53:26.596Z,13.50
2018-01-12T13:55:52.512Z,14.13
2018-01-12T13:58:18.444Z,13.27
2018-01-12T14:00:44.356Z,14.07
2018-01-12T14:03:10.272Z,13.67
2018-01-12T14:05:36.217Z,14.07
2018-01-12T14:08:02.157Z,12.57
2018-01-12T14:10:28.115Z,14.00
2018-01-12T14:12:54.061Z,13.63
2018-01-12T14:15:19.980Z,11.57
2018-01-12T14:17:45.892Z,10.67
2018-01-12T14:20:11.829Z,11.23
2018-01-12T14:22:37.742Z,12.53
2018-01-12T14:25:03.702Z,12.70
2018-01-12T14:27:29.676Z,12.97
2018-01-12T14:29:55.600Z,12.07
2018-01-12T14:32:21.518Z,12.33
2018-01-12T14:34:47.434Z,12.50
2018-01-12T14:37:13.377Z,12.00
2018-01-12T14:39:39.320Z,11.60
2018-01-12T14:42:05.306Z,12.87
2018-01-12T14:44:32.069Z,11.37
2018-01-12T14:46:58.748Z,13.30
2018-01-12T14:49:24.668Z,13.87
2018-01-12T14:51:50.576Z,12.23
2018-01-12T14:54:17.233Z,12.80
2018-01-12T14:56:43.888Z,13.40
2018-01-12T14:59:10.548Z,14.57
2018-01-12T15:01:36.468Z,15.00
2018-01-12T15:04:03.150Z,14.20
2018-01-12T15:06:29.183Z,14.37
2018-01-12T15:08:55.106Z,13.40
2018-01-12T15:11:21.012Z,15.70
2018-01-12T15:13:46.927Z,14.87
2018-01-12T15:16:12.856Z,17.13
2018-01-12T15:18:38.780Z,15.43
2018-01-12T15:21:04.760Z,16.27
2018-01-12T15:23:31.450Z,16.60
2018-01-12T15:25:57.509Z,16.43
2018-01-12T15:28:23.424Z,16.70
2018-01-12T15:30:49.334Z,16.03
2018-01-12T15:33:15.244Z,16.97
2018-01-12T15:35:41.908Z,19.63
2018-01-12T15:38:08.561Z,18.40
2018-01-12T15:40:34.569Z,18.53
2018-01-12T15:43:00.503Z,18.67
2018-01-12T15:45:26.483Z,18.93
2018-01-12T15:47:52.422Z,21.20
2018-01-12T15:50:18.340Z,19.73
2018-01-12T15:52:44.254Z,20.80
2018-01-12T15:55:10.179Z,19.30
2018-01-12T15:57:36.113Z,18.73
2018-01-12T16:00:02.089Z,19.33
2018-01-12T16:02:28.102Z,18.23
2018-01-12T16:04:54.772Z,17.97
2018-01-12T16:07:20.676Z,19.07
2018-01-12T16:09:47.346Z,17.13
2018-01-12T16:12:13.252Z,16.90
2018-01-12T16:14:39.189Z,15.87
2018-01-12T16:17:05.901Z,17.13
2018-01-12T16:19:31.863Z,17.87
2018-01-12T16:21:57.852Z,14.47
2018-01-12T16:24:23.776Z,17.50
2018-01-12T16:26:49.717Z,16.10
2018-01-12T16:29:15.644Z,17.63
2018-01-12T16:31:41.573Z,17.33
2018-01-12T16:34:07.538Z,16.67
2018-01-12T16:36:33.481Z,16.43
2018-01-12T16:38:59.436Z,17.73
2018-01-12T16:41:26.097Z,15.47
2018-01-12T16:43:52.003Z,16.60
2018-01-12T16:46:17.915Z,15.63
2018-01-12T16:48:43.826Z,17.33
2018-01-12T16:51:10.497Z,17.13
2018-01-12T16:53:36.414Z,17.07
2018-01-12T16:56:02.368Z,16.70
2018-01-12T16:58:28.383Z,17.07
2018-01-12T17:00:55.034Z,16.33
2018-01-12T17:03:21.680Z,14.90
2018-01-12T17:05:48.348Z,16.23
2018-01-12T17:08:14.252Z,15.50
2018-01-12T17:10:40.909Z,16.37
2018-01-12T17:13:07.658Z,15.40
2018-01-12T17:15:34.386Z,16.37
2018-01-12T17:18:01.192Z,15.17
2018-01-12T17:20:27.225Z,16.17
2018-01-12T17:22:53.152Z,16.17
2018-01-12T17:25:19.080Z,15.63
2018-01-12T17:27:45.733Z,16.37
2018-01-12T17:30:12.385Z,17.37
2018-01-12T17:32:39.036Z,16.30
2018-01-12T17:35:05.729Z,15.87
2018-01-12T17:37:31.668Z,14.80
2018-01-12T17:39:57.646Z,16.50
2018-01-12T17:42:24.297Z,16.37
2018-01-12T17:44:50.954Z,17.40
2018-01-12T17:47:17.621Z,16.83
2018-01-12T17:49:43.608Z,17.00
2018-01-12T17:52:09.528Z,15.10
2018-01-12T17:54:35.475Z,17.40
2018-01-12T17:57:01.401Z,16.37
2018-01-12T17:59:27.365Z,16.50
2018-01-12T18:01:53.297Z,17.03
2018-01-12T18:04:19.217Z,16.60
2018-01-12T18:06:45.136Z,17.70
2018-01-12T18:09:11.051Z,18.57
2018-01-12T18:11:36.984Z,17.83
2018-01-12T18:14:02.928Z,18.20
2018-01-12T18:16:28.906Z,17.10
2018-01-12T18:18:55.556Z,17.00
2018-01-12T18:21:22.225Z,16.80
2018-01-12T18:23:48.884Z,16.83
2018-01-12T18:26:14.803Z,17.00
2018-01-12T18:28:41.465Z,19.17
2018-01-12T18:31:08.140Z,18.13
2018-01-12T18:33:34.187Z,16.80
2018-01-12T18:36:00.189Z,19.23
2018-01-12T18:38:26.109Z,18.13
2018-01-12T18:40:52.784Z,16.73
2018-01-12T18:43:18.705Z,17.33
2018-01-12T18:45:45.380Z,15.27
2018-01-12T18:48:11.299Z,16.90
2018-01-12T18:50:37.238Z,17.53
2018-01-12T18:53:03.172Z,17.33
2018-01-12T18:55:29.152Z,16.40
2018-01-12T18:57:55.073Z,16.63
2018-01-12T19:00:20.976Z,17.23
2018-01-12T19:02:46.887Z,18.43
2018-01-12T19:05:13.585Z,17.97
2018-01-12T19:07:39.550Z,17.33
2018-01-12T19:10:05.534Z,17.50
2018-01-12T19:12:31.529Z,17.27
2018-01-12T19:14:58.255Z,18.97
2018-01-12T19:17:24.197Z,17.37
2018-01-12T19:19:50.119Z,15.87
2018-01-12T19:22:16.028Z,18.20
2018-01-12T19:24:41.954Z,17.20
2018-01-12T19:27:07.904Z,18.20
2018-01-12T19:29:33.838Z,19.67
2018-01-12T19:31:59.868Z,19.50
2018-01-12T19:34:25.790Z,19.20
2018-01-12T19:36:51.701Z,18.83
2018-01-12T19:39:18.365Z,18.73
2018-01-12T19:41:45.020Z,18.43
2018-01-12T19:44:10.936Z,17.70
2018-01-12T19:46:37.609Z,18.77
2018-01-12T19:49:03.594Z,18.07
2018-01-12T19:51:29.548Z,18.70
2018-01-12T19:53:56.287Z,18.27
2018-01-12T19:56:22.273Z,19.00
2018-01-12T19:58:48.269Z,19.10
2018-01-12T20:01:14.193Z,18.67
2018-01-12T20:03:40.102Z,18.13
2018-01-12T20:06:06.069Z,19.77
2018-01-12T20:08:32.020Z,18.33
2018-01-12T20:10:58.756Z,19.77
2018-01-12T20:13:24.692Z,18.40
2018-01-12T20:15:50.689Z,19.80
2018-01-12T20:18:16.599Z,19.47
2018-01-12T20:20:42.516Z,17.83
2018-01-12T20:23:09.262Z,18.20
2018-01-12T20:25:35.995Z,18.37
2018-01-12T20:28:01.960Z,18.70
2018-01-12T20:30:27.994Z,17.87
2018-01-12T20:32:53.920Z,19.20
2018-01-12T20:35:20.581Z,19.40
2018-01-12T20:37:47.265Z,19.37
2018-01-12T20:40:13.180Z,20.33
2018-01-12T20:42:39.105Z,20.77
2018-01-12T20:45:05.760Z,18.17
2018-01-12T20:47:32.533Z,19.87
2018-01-12T20:49:58.561Z,17.33
2018-01-12T20:52:24.480Z,19.93
2018-01-12T20:54:50.392Z,20.97
2018-01-12T20:57:16.307Z,19.37
2018-01-12T20:59:42.216Z,20.50
2018-01-12T21:02:08.137Z,18.43
2018-01-12T21:04:34.078Z,18.23
2018-01-12T21:07:00.106Z,18.30
2018-01-12T21:09:26.029Z,16.47
2018-01-12T21:11:51.950Z,17.97
2018-01-12T21:14:18.389Z,18.93
2018-01-12T21:16:44.346Z,17.67
2018-01-12T21:19:10.548Z,17.40
2018-01-12T21:21:36.522Z,17.33
2018-01-12T21:24:02.469Z,17.17
2018-01-12T21:26:28.883Z,16.70
2018-01-12T21:28:54.836Z,17.10
2018-01-12T21:31:20.821Z,15.77
2018-01-12T21:33:46.738Z,16.13
2018-01-12T21:36:12.676Z,16.60
2018-01-12T21:38:38.598Z,15.70
2018-01-12T21:41:04.525Z,17.33
2018-01-12T21:43:30.469Z,15.33
2018-01-12T21:45:56.416Z,16.37
2018-01-12T21:48:22.342Z,16.83
2018-01-12T21:50:48.269Z,16.00
2018-01-12T21:53:14.194Z,15.97
2018-01-12T21:55:40.113Z,16.17
2018-01-12T21:58:06.021Z,14.70
2018-01-12T22:00:32.686Z,16.40
2018-01-12T22:02:58.659Z,15.20
2018-01-12T22:05:24.577Z,16.13
2018-01-12T22:07:50.516Z,15.80
2018-01-12T22:10:16.428Z,14.67
2018-01-12T22:12:42.353Z,15.90
2018-01-12T22:15:09.023Z,15.83
2018-01-12T22:17:35.017Z,17.03
2018-01-12T22:20:00.951Z,15.70
2018-01-12T22:22:26.914Z,15.70
2018-01-12T22:24:52.824Z,14.93
2018-01-12T22:27:19.490Z,15.90
2018-01-12T22:29:46.139Z,15.53
2018-01-12T22:32:12.802Z,15.87
2018-01-12T22:34:38.717Z,15.07
2018-01-12T22:37:04.657Z,15.90
2018-01-12T22:39:31.350Z,14.97
2018-01-12T22:41:57.296Z,13.80
2018-01-12T22:44:23.213Z,17.57
2018-01-12T22:46:49.128Z,15.53
2018-01-12T22:49:15.044Z,15.07
2018-01-12T22:51:41.710Z,17.23
2018-01-12T22:54:07.629Z,15.97
2018-01-12T22:56:34.335Z,17.93
2018-01-12T22:59:00.326Z,16.67
2018-01-12T23:01:26.261Z,16.73
2018-01-12T23:03:52.176Z,16.67
2018-01-12T23:06:18.844Z,16.77
2018-01-12T23:08:45.487Z,16.60
2018-01-12T23:11:12.172Z,17.10
2018-01-12T23:13:38.087Z,16.57
2018-01-12T23:16:04.028Z,16.93
2018-01-12T23:18:29.976Z,18.57
2018-01-12T23:20:55.892Z,19.50
2018-01-12T23:23:21.813Z,15.53
2018-01-12T23:25:48.460Z,16.17
2018-01-12T23:28:15.120Z,18.57
2018-01-12T23:30:41.795Z,17.43
2018-01-12T23:33:07.716Z,17.87
2018-01-12T23:35:33.650Z,18.53
2018-01-12T23:37:59.697Z,18.07
2018-01-12T23:40:25.612Z,17.77
2018-01-12T23:42:52.268Z,18.50
2018-01-12T23:45:18.186Z,20.10
2018-01-12T23:47:44.843Z,18.07
2018-01-12T23:50:11.505Z,19.53
2018-01-12T23:52:37.433Z,17.57
2018-01-12T23:55:04.151Z,18.37
2018-01-12T23:57:30.121Z,15.93
2018-01-12T23:59:56.045Z,18.87
